• Join FlightAware (Why Join?)
  • Login
  • US Flag 
10:29PM EST


 

Airport Tracker/Info


-or-


 

Live Flight TrackerFlight Track Log ✈ FDX1260 ✈ 07-Oct-2013 ✈ KCVG - KMEM

Flight Track Log - Related Links

Times and Time Zones

All times are in EDT time to prevent confusion due to time zone crossing. See the FDX1260 flight status page for this flight to view local times or setup timezone preferences in your user account.

Time Position Orientation Groundspeed Altitude Reporting Facility
EDT Latitude Longitude Course Direction KTS MPH feet Rate Location/Type
10:56PM 39.0667 -84.6667 339° North 177 204 1,700  Level Cincinnati TRACON
10:57PM 39.1000 -84.6833 339° North 193 222 3,900 2,820 Climbing Cincinnati TRACON
11:03PM 38.7670 -85.3100 339° North 438 504 21,800 2,700 Climbing FlightAware
11:04PM 38.7000 -85.3520 206° Southwest 452 520 23,100 2,280 Climbing FlightAware
11:04PM 38.6300 -85.3950 206° Southwest 460 529 24,600 2,460 Climbing FlightAware
11:05PM 38.5590 -85.4380 205° Southwest 466 536 26,100 2,220 Climbing FlightAware
11:06PM 38.4950 -85.4790 207° Southwest 475 547 27,200 1,980 Climbing FlightAware
11:06PM 38.4240 -85.5240 206° Southwest 482 555 28,400 2,220 Climbing FlightAware
11:07PM 38.3560 -85.5670 206° Southwest 478 550 29,800 2,400 Climbing FlightAware
11:07PM 38.2850 -85.6100 205° Southwest 476 548 31,200 2,280 Climbing FlightAware
11:08PM 38.2200 -85.6520 207° Southwest 474 545 32,400 2,100 Climbing FlightAware
11:09PM 38.1460 -85.6970 206° Southwest 472 543 33,700 2,100 Climbing FlightAware
11:09PM 38.0770 -85.7410 207° Southwest 465 535 35,000 1,920 Climbing FlightAware
11:10PM 38.0130 -85.7800 206° Southwest 465 535 36,000 840 Climbing FlightAware
11:10PM 37.9390 -85.8250 206° Southwest 473 544 36,000  Level FlightAware
11:11PM 37.9040 -85.8470 206° Southwest 471 542 36,000  Level FlightAware
11:11PM 37.8080 -85.9070 206° Southwest 465 535 36,000  Level FlightAware
11:12PM 37.7370 -85.9500 206° Southwest 461 531 36,000  Level FlightAware
11:13PM 37.6520 -86.0020 206° Southwest 465 535 36,000  Level FlightAware
11:13PM 37.5900 -86.0400 206° Southwest 466 536 36,000 -300 Level FlightAware
11:14PM 37.5160 -86.0860 206° Southwest 465 535 35,700 -600 Descending FlightAware
11:14PM 37.4590 -86.1210 206° Southwest 465 535 35,300 -660 Descending FlightAware
11:15PM 37.3850 -86.1660 206° Southwest 466 536 35,000 -300 Descending FlightAware
11:16PM 37.3140 -86.2090 206° Southwest 469 540 35,000  Level FlightAware
11:16PM 37.2520 -86.2480 207° Southwest 470 541 35,000  Level FlightAware
11:16PM 37.2240 -86.2730 215° Southwest 466 536 35,000  Level FlightAware
11:17PM 37.1950 -86.3160 230° Southwest 459 528 35,000  Level FlightAware
11:17PM 37.1560 -86.3950 238° Southwest 456 525 35,000  Level FlightAware
11:18PM 37.1150 -86.4750 237° Southwest 456 525 35,000  Level FlightAware
11:19PM 37.0760 -86.5500 237° Southwest 455 524 35,000  Level FlightAware
11:19PM 37.0400 -86.6190 237° Southwest 456 525 35,000  Level FlightAware
11:20PM 36.9875 -86.7216 237° Southwest 458 527 35,000  Level FlightAware ADS-B
11:20PM 36.9520 -86.7910 237° Southwest 460 529 35,000  Level FlightAware
11:21PM 36.9150 -86.8620 237° Southwest 460 529 35,000  Level FlightAware
11:22PM 36.8730 -86.9420 237° Southwest 460 529 35,000  Level FlightAware
11:22PM 36.8360 -87.0140 237° Southwest 460 529 35,000  Level FlightAware
11:23PM 36.7960 -87.0900 237° Southwest 461 531 35,000  Level FlightAware
11:23PM 36.7510 -87.1760 237° Southwest 461 531 35,000  Level FlightAware
11:24PM 36.7100 -87.2540 237° Southwest 460 529 35,000  Level FlightAware
11:24PM 36.6710 -87.3300 237° Southwest 461 531 35,000  Level FlightAware
11:25PM 36.6300 -87.4050 236° Southwest 461 531 35,000  Level FlightAware
11:26PM 36.5890 -87.4850 237° Southwest 460 529 35,000  Level FlightAware
11:26PM 36.5520 -87.5540 236° Southwest 460 529 35,000  Level FlightAware
11:27PM 36.5080 -87.6380 237° Southwest 462 532 35,000  Level FlightAware
11:27PM 36.4650 -87.7180 236° Southwest 467 537 35,000  Level FlightAware
11:28PM 36.4220 -87.7990 237° Southwest 467 537 35,000  Level FlightAware
11:28PM 36.3830 -87.8700 236° Southwest 466 536 35,000  Level FlightAware
11:29PM 36.3420 -87.9480 237° Southwest 465 535 35,000  Level FlightAware
11:30PM 36.2990 -88.0280 236° Southwest 465 535 35,000  Level FlightAware
11:30PM 36.2610 -88.0980 236° Southwest 465 535 35,000  Level FlightAware
11:31PM 36.2200 -88.1740 236° Southwest 467 537 35,000  Level FlightAware
11:31PM 36.1830 -88.2420 236° Southwest 467 537 35,000  Level FlightAware
11:32PM 36.1450 -88.3110 236° Southwest 467 537 35,000  Level FlightAware
11:33PM 36.1080 -88.3790 236° Southwest 467 537 35,000  Level FlightAware
11:33PM 36.0710 -88.4470 236° Southwest 467 537 35,000 -900 Level FlightAware
11:34PM 35.9770 -88.6210 236° Southwest 461 531 33,600 -900 Descending FlightAware
11:35PM 35.9390 -88.6900 236° Southwest 461 531 33,600  Level FlightAware
11:35PM 35.9030 -88.7570 236° Southwest 461 531 33,600  Level FlightAware
11:36PM 35.8660 -88.8230 235° Southwest 461 531 33,600  Level FlightAware
11:37PM 35.8300 -88.8900 236° Southwest 461 531 33,600  Level FlightAware
11:37PM 35.7930 -88.9570 236° Southwest 461 531 33,600  Level FlightAware
11:38PM 35.7560 -89.0250 236° Southwest 461 531 33,600  Level FlightAware
11:38PM 35.7190 -89.0920 236° Southwest 461 531 33,600  Level FlightAware
11:39PM 35.6830 -89.1590 237° Southwest 461 531 33,600  Level FlightAware
11:40PM 35.6460 -89.2250 235° Southwest 461 531 33,600  Level FlightAware
11:40PM 35.6090 -89.2940 237° Southwest 461 531 33,600  Level FlightAware
11:41PM 35.5710 -89.3620 236° Southwest 461 531 33,600  Level FlightAware
11:41PM 35.5350 -89.4280 236° Southwest 461 531 33,600  Level FlightAware
11:42PM 35.4970 -89.4970 236° Southwest 461 531 33,600  Level FlightAware
11:43PM 35.4600 -89.5630 235° Southwest 461 531 33,600  Level FlightAware
11:43PM 35.4240 -89.6300 237° Southwest 461 531 33,600 -18,420 Level FlightAware
11:44PM 35.3000 -89.6333 237° Southwest 319 367 11,200 -14,580 Descending KMEM
11:45PM 35.2333 -89.7000 219° Southwest 300 345 10,100 -1,020 Descending KMEM
11:46PM 35.1833 -89.7667 227° Southwest 290 334 9,200 -900 Descending KMEM
11:47PM 35.1167 -89.8500 226° Southwest 251 289 8,300 -900 Descending KMEM
11:48PM 35.0667 -89.8667 195° South 239 275 7,400 -1,080 Descending KMEM
11:49PM 34.9833 -89.8667 180° South 245 282 6,200 -1,500 Descending KMEM
11:50PM 34.9333 -89.8667 180° South 231 266 4,400 -1,560 Descending KMEM
11:51PM 34.8667 -89.8667 180° South 229 264 3,100 -720 Descending KMEM
11:52PM 34.8167 -89.8833 195° South 236 272 3,100 -540 Level KMEM
11:53PM 34.8167 -89.9500 270° West 217 250 2,100 -540 Descending KMEM
11:54PM 34.8500 -89.9667 338° Northwest 153 176 2,100  Level KMEM
11:55PM 34.9000 -89.9667 360° North 152 175 2,100 -120 Level KMEM
11:56PM 34.9500 -89.9667 360° North 156 180 1,900 -420 Descending KMEM
11:57PM 34.9667 -89.9667 360° North 121 139 1,400 -600 Descending KMEM
11:58PM 35.0167 -89.9667 360° North 111 128 700 -660 Descending KMEM
12:00AM 35.0333 -89.9667 345° North  Level FlightAware Approximate
12:07AM 35.0424 -89.9767 345° North  Level Estimated
12:08AM 35.0424 -89.9767 345° North  Level Estimated
12:09AM 35.0424 -89.9767 345° North  Level Estimated
12:10AM 35.0424 -89.9767 345° North  Level Estimated
12:11AM 35.0424 -89.9767 345° North  Level Estimated
12:12AM 35.0424 -89.9767 345° North  Level Estimated
12:13AM 35.0424 -89.9767 345° North  Level Estimated